Time;durP1;ratioP1;P1;durP2;ratioP2;P2;SDS_P1;SDS_P2;PMS_P1;PMS_P2;Temp;Humidity;BMP_temperature;BMP_pressure;BME280_temperature;BME280_humidity;BME280_pressure;Samples;Min_cycle;Max_cycle;Signal;HPM_P1;HPM_P2
2022/01/01 00:01:56;;;;;;;0.13;0.13;;;;;;;11.75;100.00;101393.56;5041344;28;20218;-84
2022/01/01 00:04:24;;;;;;;0.00;0.00;;;;;;;11.73;100.00;101395.28;5023466;28;20206;-84
2022/01/01 00:06:52;;;;;;;0.20;0.20;;;;;;;11.73;100.00;101401.50;5005295;28;20213;-82
2022/01/01 00:09:21;;;;;;;0.00;0.00;;;;;;;11.65;100.00;101388.91;5040687;28;20218;-83
2022/01/01 00:11:49;;;;;;;0.00;0.00;;;;;;;11.67;100.00;101403.09;5035316;28;20209;-83
2022/01/01 00:14:17;;;;;;;0.90;0.63;;;;;;;11.77;100.00;101413.03;5017268;28;20218;-84
2022/01/01 00:16:45;;;;;;;0.00;0.00;;;;;;;11.78;100.00;101415.75;5029438;28;20214;-83
2022/01/01 00:19:14;;;;;;;0.00;0.00;;;;;;;11.72;100.00;101404.09;5026463;28;20687;-82
2022/01/01 00:21:43;;;;;;;0.00;0.00;;;;;;;11.62;100.00;101394.16;5017220;28;20213;-85
2022/01/01 00:24:12;;;;;;;0.00;0.00;;;;;;;11.63;100.00;101403.91;5034700;28;20292;-83
2022/01/01 00:26:40;;;;;;;0.00;0.00;;;;;;;11.57;100.00;101394.06;5026500;28;20212;-83
2022/01/01 00:29:09;;;;;;;0.00;0.00;;;;;;;11.52;100.00;101390.44;5033664;28;20229;-82
2022/01/01 00:31:37;;;;;;;0.00;0.00;;;;;;;11.57;100.00;101394.06;5033306;28;20202;-83
2022/01/01 00:34:05;;;;;;;0.00;0.00;;;;;;;11.52;100.00;101395.72;5025974;28;20198;-86
2022/01/01 00:36:33;;;;;;;0.00;0.00;;;;;;;11.54;100.00;101396.66;5044108;28;20205;-85
2022/01/01 00:39:02;;;;;;;0.00;0.00;;;;;;;11.47;100.00;101394.75;5028606;28;20233;-84
2022/01/01 00:41:34;;;;;;;0.00;0.00;;;;;;;11.09;100.00;101373.63;5062674;28;20221;-83
2022/01/01 00:44:02;;;;;;;0.10;0.10;;;;;;;11.01;100.00;101388.47;5044531;28;20226;-84
2022/01/01 00:46:30;;;;;;;0.13;0.13;;;;;;;10.81;100.00;101400.34;5013055;28;20209;-83
2022/01/01 00:48:59;;;;;;;0.00;0.00;;;;;;;10.71;100.00;101395.69;5019323;28;20226;-83
2022/01/01 00:51:27;;;;;;;0.00;0.00;;;;;;;10.74;100.00;101414.28;5037140;28;20218;-83
2022/01/01 00:53:55;;;;;;;0.00;0.00;;;;;;;10.67;100.00;101417.66;5034852;28;20198;-83
2022/01/01 00:56:24;;;;;;;0.00;0.00;;;;;;;10.64;100.00;101434.34;5021225;28;20247;-84
2022/01/01 00:58:52;;;;;;;0.10;0.10;;;;;;;10.68;100.00;101449.44;5018020;28;20241;-83
2022/01/01 01:01:20;;;;;;;0.00;0.00;;;;;;;10.60;100.00;101440.41;5029408;28;20214;-83
2022/01/01 01:03:48;;;;;;;0.10;0.10;;;;;;;10.55;100.00;101444.69;5045196;28;20236;-84
2022/01/01 01:06:16;;;;;;;0.03;0.03;;;;;;;10.61;100.00;101455.41;5058141;28;20205;-84
2022/01/01 01:08:45;;;;;;;0.00;0.00;;;;;;;10.60;100.00;101452.75;5022724;28;20202;-84
2022/01/01 01:11:13;;;;;;;0.00;0.00;;;;;;;10.59;100.00;101449.19;5015815;28;20201;-83
2022/01/01 01:13:44;;;;;;;0.00;0.00;;;;;;;10.54;100.00;101451.72;5041617;28;20206;-83
2022/01/01 01:16:12;;;;;;;0.00;0.00;;;;;;;10.55;100.00;101460.56;5020352;28;20202;-83
2022/01/01 01:18:41;;;;;;;0.00;0.00;;;;;;;10.44;100.00;101462.03;5038782;28;20660;-84
2022/01/01 01:21:09;;;;;;;0.00;0.00;;;;;;;10.46;100.00;101460.31;5021290;28;20205;-84
2022/01/01 01:23:37;;;;;;;0.00;0.00;;;;;;;10.47;100.00;101467.41;5025016;28;20592;-85
2022/01/01 01:26:07;;;;;;;0.00;0.00;;;;;;;10.41;100.00;101470.78;5011568;28;20202;-85
2022/01/01 01:28:37;;;;;;;0.00;0.00;;;;;;;10.40;100.00;101473.34;5036493;28;20206;-83
2022/01/01 01:31:05;;;;;;;0.00;0.00;;;;;;;10.38;100.00;101475.97;5019626;28;20652;-83
2022/01/01 01:33:34;;;;;;;0.00;0.00;;;;;;;10.45;100.00;101496.44;5037390;28;20205;-85
2022/01/01 01:36:02;;;;;;;0.10;0.10;;;;;;;10.44;100.00;101491.13;5026694;28;20216;-83
2022/01/01 01:38:36;;;;;;;0.00;0.00;;;;;;;10.40;100.00;101495.44;5021943;28;20201;-84
2022/01/01 01:41:09;;;;;;;0.00;0.00;;;10.60;99.90;;;10.44;100.00;101497.31;5024029;28;20201;-85
2022/01/01 01:43:37;;;;;;;0.00;0.00;;;;;;;10.44;100.00;101497.31;5020212;28;20218;-84
2022/01/01 01:46:06;;;;;;;0.00;0.00;;;;;;;10.49;100.00;101503.63;5031396;28;20210;-83
2022/01/01 01:48:38;;;;;;;0.00;0.00;;;10.70;99.90;;;10.48;100.00;101500.94;5044448;28;20656;-86
2022/01/01 01:51:07;;;;;;;0.00;0.00;;;;;;;10.47;100.00;101496.50;5039382;28;20206;-84
2022/01/01 01:53:35;;;;;;;0.00;0.00;;;;;;;10.47;100.00;101499.13;5043224;28;20201;-84
2022/01/01 01:56:03;;;;;;;0.03;0.03;;;10.80;99.90;;;10.53;100.00;101499.31;5031513;28;20672;-84
2022/01/01 01:58:32;;;;;;;0.10;0.10;;;;;;;10.50;100.00;101502.75;5057515;28;20212;-83
2022/01/01 02:03:32;;;;;;;0.00;0.00;;;;;;;10.51;100.00;101511.59;5031035;28;20218;-83
2022/01/01 02:06:00;;;;;;;0.15;0.15;;;10.70;99.90;;;10.50;100.00;101508.03;5034584;28;20210;-85
2022/01/01 02:08:28;;;;;;;0.00;0.00;;;10.70;99.90;;;10.53;100.00;101501.94;5038825;28;20228;-85
2022/01/01 02:10:57;;;;;;;0.05;0.05;;;;;;;10.53;100.00;101507.22;5032817;28;20230;-85
2022/01/01 02:13:31;;;;;;;0.00;0.00;;;;;;;10.53;100.00;101505.47;5029003;28;20202;-84
2022/01/01 02:16:29;;;;;;;0.00;0.00;;;10.70;99.90;;;10.52;100.00;101500.16;5033822;28;20215;-85
2022/01/01 02:18:58;;;;;;;0.00;0.00;;;;;;;10.50;100.00;101502.75;5052418;28;20225;-83
2022/01/01 02:21:30;;;;;;;0.00;0.00;;;;;;;10.51;100.00;101511.59;5032863;28;20214;-84
2022/01/01 02:23:59;;;;;;;0.00;0.00;;;;;;;10.49;100.00;101513.28;5023152;28;20226;-83
2022/01/01 02:26:34;;;;;;;0.00;0.00;;;10.60;99.90;;;10.51;100.00;101516.88;5038746;28;20202;-83
2022/01/01 02:29:03;;;;;;;0.00;0.00;;;10.60;99.90;;;10.51;100.00;101511.59;5027474;23;20205;-79
2022/01/01 02:31:33;;;;;;;0.00;0.00;;;10.60;99.90;;;10.50;100.00;101505.41;4996945;28;20266;-81
2022/01/01 02:34:06;;;;;;;0.00;0.00;;;10.60;99.90;;;10.51;100.00;101511.59;4970198;28;20212;-81
2022/01/01 02:36:41;;;;;;;0.00;0.00;;;10.60;99.90;;;10.51;100.00;101503.66;4987218;28;20584;-81
2022/01/01 02:39:18;;;;;;;0.10;0.10;;;10.70;99.90;;;10.50;100.00;101496.56;4976735;28;20232;-82
2022/01/01 02:41:51;;;;;;;0.17;0.17;;;10.50;99.90;;;10.49;100.00;101500.06;4967419;28;20219;-80
2022/01/01 02:44:23;;;;;;;0.00;0.00;;;10.60;99.90;;;10.51;100.00;101495.72;4949424;28;20675;-81
2022/01/01 02:46:54;;;;;;;0.00;0.00;;;10.60;99.90;;;10.48;100.00;101491.25;4976555;28;20569;-81
2022/01/01 02:49:23;;;;;;;0.00;0.00;;;;;;;10.51;100.00;101504.56;4959503;28;20224;-81
2022/01/01 02:51:51;;;;;;;0.00;0.00;;;;;;;10.52;100.00;101505.44;4966829;28;20215;-81
2022/01/01 02:54:19;;;;;;;0.00;0.00;;;;;;;10.51;100.00;101501.91;4973196;28;20651;-80
2022/01/01 02:56:48;;;;;;;0.00;0.00;;;;;;;10.52;100.00;101500.16;4969269;28;20212;-81
2022/01/01 02:59:17;;;;;;;0.00;0.00;;;;;;;10.52;100.00;101500.16;4972212;28;20251;-81
2022/01/01 03:01:45;;;;;;;0.00;0.00;;;;;;;10.52;100.00;101490.47;4984666;28;20204;-80
2022/01/01 03:04:13;;;;;;;0.00;0.00;;;;;;;10.50;100.00;101491.28;4954957;28;20690;-81
2022/01/01 03:06:41;;;;;;;0.00;0.00;;;;;;;10.48;100.00;101488.59;4964146;28;20212;-80
2022/01/01 03:09:10;;;;;;;0.00;0.00;;;;;;;10.53;100.00;101486.06;4959601;28;20233;-81
2022/01/01 03:11:38;;;;;;;0.00;0.00;;;;;;;10.52;100.00;101479.00;4962840;28;20219;-82
2022/01/01 03:14:06;;;;;;;0.30;0.30;;;10.80;99.90;;;10.47;100.00;101478.88;4965887;28;20211;-81
2022/01/01 03:16:34;;;;;;;0.10;0.10;;;;;;;10.49;100.00;101473.63;4958567;28;20600;-81
2022/01/01 03:19:02;;;;;;;0.00;0.00;;;;;;;10.44;100.00;101467.31;4949457;28;20228;-81
2022/01/01 03:21:30;;;;;;;0.00;0.00;;;;;;;10.42;100.00;101458.44;4963752;28;20204;-81
2022/01/01 03:23:59;;;;;;;0.00;0.00;;;;;;;10.43;100.00;101463.78;4968642;28;20223;-81
2022/01/01 03:26:27;;;;;;;0.00;0.00;;;;;;;10.42;100.00;101471.69;4969272;28;20197;-81
2022/01/01 03:28:55;;;;;;;0.00;0.00;;;;;;;10.38;100.00;101465.38;4984293;28;20693;-81
2022/01/01 03:31:25;;;;;;;0.10;0.10;;;;;;;10.36;100.00;101472.38;4974716;28;20663;-81
2022/01/01 03:33:54;;;;;;;0.10;0.10;;;;;;;10.35;100.00;101467.94;4959445;28;20215;-80
2022/01/01 03:36:22;;;;;;;0.10;0.10;;;;;;;10.35;100.00;101462.66;4971121;28;20212;-80
2022/01/01 03:38:50;;;;;;;0.00;0.00;;;10.50;99.90;;;10.33;100.00;101467.00;4953383;28;20204;-81
2022/01/01 03:41:18;;;;;;;0.00;0.00;;;;;;;10.32;100.00;101465.22;4961567;28;20208;-81
2022/01/01 03:43:47;;;;;;;0.00;0.00;;;;;;;10.28;100.00;101458.06;4958471;28;20217;-81
2022/01/01 03:46:15;;;;;;;0.03;0.03;;;;;;;10.31;100.00;101473.13;4963427;28;20211;-81
2022/01/01 03:48:44;;;;;;;0.00;0.00;;;;;;;10.31;100.00;101468.72;4979776;28;20214;-81
2022/01/01 03:51:12;;;;;;;1.55;0.50;;;;;;;10.28;100.00;101473.94;4965634;28;20209;-81
2022/01/01 03:53:40;;;;;;;0.00;0.00;;;;;;;10.25;100.00;101474.75;4981377;28;20576;-79
2022/01/01 03:56:09;;;;;;;0.03;0.03;;;;;;;10.23;100.00;101470.25;4967740;28;20211;-80
2022/01/01 03:58:38;;;;;;;0.17;0.17;;;;;;;10.26;100.00;101478.28;4966122;28;20215;-81
2022/01/01 04:01:06;;;;;;;0.10;0.10;;;10.40;99.90;;;10.27;100.00;101491.53;4968317;28;20204;-82
2022/01/01 04:03:34;;;;;;;0.10;0.10;;;;;;;10.26;100.00;101484.47;4948371;28;20200;-82
2022/01/01 04:06:03;;;;;;;0.10;0.10;;;;;;;10.27;100.00;101483.59;4959252;28;20200;-81
2022/01/01 04:08:31;;;;;;;0.00;0.00;;;;;;;10.25;100.00;101479.13;4966144;28;20215;-79
2022/01/01 04:10:59;;;;;;;0.00;0.00;;;;;;;10.23;100.00;101475.56;4959561;28;20590;-80
2022/01/01 04:13:27;;;;;;;0.10;0.10;;;;;;;10.17;100.00;101468.31;4967074;28;20219;-80
2022/01/01 04:15:55;;;;;;;0.00;0.00;;;;;;;10.15;100.00;101471.78;4981941;28;20204;-81
2022/01/01 04:18:37;;;;;;;0.10;0.10;;;;;;;10.16;100.00;101469.16;4970456;28;20574;-81
2022/01/01 04:21:10;;;;;;;0.08;0.08;;;10.30;99.90;;;10.12;100.00;101476.97;4969624;28;20208;-81
2022/01/01 04:23:44;;;;;;;0.00;0.00;;;10.30;99.90;;;10.13;100.00;101478.75;4971671;28;20219;-80
2022/01/01 04:26:13;;;;;;;0.00;0.00;;;;;;;10.15;100.00;101482.34;4976904;28;20204;-81
2022/01/01 04:28:41;;;;;;;0.10;0.10;;;;;;;10.08;100.00;101478.63;4996217;28;20215;-81
2022/01/01 04:31:10;;;;;;;0.00;0.00;;;;;;;10.10;100.00;101484.84;4953936;28;20613;-81
2022/01/01 04:33:38;;;;;;;0.00;0.00;;;;;;;10.10;100.00;101479.56;4966156;28;20285;-81
2022/01/01 04:36:06;;;;;;;0.00;0.00;;;;;;;10.17;100.00;101492.09;4973686;28;20231;-81
2022/01/01 04:41:09;;;;;;;0.10;0.10;;;10.40;99.90;;;10.40;100.00;101508.66;5003212;28;20234;-81
2022/01/01 04:43:38;;;;;;;0.00;0.00;;;;;;;10.55;100.00;101514.34;4977171;28;20212;-81
2022/01/01 04:46:06;;;;;;;0.00;0.00;;;;;;;10.66;100.00;101521.69;4969885;28;20247;-82
2022/01/01 04:48:37;;;;;;;0.10;0.10;;;10.50;99.90;;;10.68;100.00;101520.84;4971567;28;20215;-82
2022/01/01 04:51:07;;;;;;;0.28;0.28;;;;;;;10.75;100.00;101522.81;4952121;28;20588;-82
2022/01/01 04:53:38;;;;;;;0.20;0.20;;;;;;;10.71;100.00;101514.75;4964424;28;20208;-80
2022/01/01 04:56:07;;;;;;;0.00;0.00;;;;;;;10.71;100.00;101510.34;4967608;28;20210;-81
2022/01/01 04:58:36;;;;;;;0.00;0.00;;;;;;;10.76;100.00;101510.47;4982967;28;20219;-81
2022/01/01 05:01:04;;;;;;;0.00;0.00;;;;;;;10.71;100.00;101505.06;4969583;28;20201;-81
2022/01/01 05:03:33;;;;;;;0.00;0.00;;;;;;;10.69;100.00;101509.41;4967981;28;20211;-80
2022/01/01 05:06:01;;;;;;;0.00;0.00;;;;;;;10.65;100.00;101501.38;4964734;28;20228;-81
2022/01/01 05:08:29;;;;;;;0.00;0.00;;;;;;;10.67;100.00;101505.84;4983404;28;20204;-80
2022/01/01 05:10:57;;;;;;;0.00;0.00;;;;;;;10.63;100.00;101490.75;4973989;28;20228;-81
2022/01/01 05:13:26;;;;;;;0.00;0.00;;;;;;;10.58;100.00;101482.69;4973407;28;20207;-81
2022/01/01 05:15:55;;;;;;;0.00;0.00;;;;;;;10.52;100.00;101482.53;4951516;28;20208;-81
2022/01/01 05:18:24;;;;;;;0.00;0.00;;;;;;;10.46;100.00;101481.47;4968976;28;20220;-80
2022/01/01 05:20:52;;;;;;;0.08;0.08;;;;;;;10.47;100.00;101489.47;4984595;28;20228;-81
2022/01/01 05:23:20;;;;;;;0.00;0.00;;;;;;;10.46;100.00;101486.78;4979184;28;20670;-80
2022/01/01 05:25:48;;;;;;;0.00;0.00;;;10.60;99.90;;;10.35;100.00;101483.81;4980553;28;20247;-81
2022/01/01 05:28:16;;;;;;;0.00;0.00;;;;;;;10.01;100.00;101459.94;4964994;28;20196;-81
2022/01/01 05:30:44;;;;;;;0.00;0.00;;;;;;;9.97;100.00;101484.47;4996856;28;20235;-80
2022/01/01 05:33:12;;;;;;;0.00;0.00;;;10.40;99.90;;;9.93;100.00;101494.97;4964297;28;20204;-81
2022/01/01 05:35:41;;;;;;;0.08;0.08;;;;;;;9.96;100.00;101504.72;4964848;28;20208;-81
2022/01/01 05:38:09;;;;;;;0.10;0.10;;;;;;;9.87;100.00;101500.06;4961079;28;20652;-81
2022/01/01 05:40:53;;;;;;;0.00;0.00;;;;;;;9.78;100.00;101502.44;4961166;28;20235;-81
2022/01/01 05:43:21;;;;;;;0.00;0.00;;;;;;;9.70;100.00;101513.63;4964656;28;20216;-81
2022/01/01 05:45:50;;;;;;;0.00;0.00;;;;;;;9.61;100.00;101511.63;4964295;28;20231;-81
2022/01/01 05:48:18;;;;;;;0.10;0.10;;;;;;;9.46;100.00;101514.69;4979316;28;20212;-80
2022/01/01 05:50:46;;;;;;;0.00;0.00;;;;;;;9.57;100.00;101526.47;4979090;28;20235;-80
2022/01/01 05:53:15;;;;;;;0.00;0.00;;;;;;;9.54;100.00;101534.31;4978971;28;20199;-80
2022/01/01 05:55:44;;;;;;;0.00;0.00;;;;;;;9.47;100.00;101526.16;4961724;28;20215;-81
2022/01/01 05:58:12;;;;;;;0.10;0.10;;;;;;;9.42;100.00;101519.84;4975616;28;20213;-81
2022/01/01 06:00:41;;;;;;;0.00;0.00;;;;;;;9.35;100.00;101529.31;4963699;28;20230;-81
2022/01/01 06:03:10;;;;;;;0.10;0.10;;;9.70;99.90;;;9.29;100.00;101531.75;4980576;28;20218;-81
2022/01/01 06:05:38;;;;;;;0.00;0.00;;;;;;;9.33;100.00;101545.94;4947489;28;20532;-81
2022/01/01 06:08:06;;;;;;;0.00;0.00;;;;;;;9.28;100.00;101538.78;4992190;28;20209;-80
2022/01/01 06:10:34;;;;;;;0.00;0.00;;;9.60;99.90;;;9.22;100.00;101542.97;4959614;28;20236;-80
2022/01/01 06:13:06;;;;;;;0.05;0.05;;;9.60;99.90;;;9.15;100.00;101539.22;4962046;28;20227;-81
2022/01/01 06:15:35;;;;;;;0.00;0.00;;;;;;;9.11;100.00;101539.97;4975846;28;20205;-81
2022/01/01 06:18:03;;;;;;;0.00;0.00;;;;;;;9.10;100.00;101548.75;4963593;28;20212;-81
2022/01/01 06:20:31;;;;;;;0.00;0.00;;;;;;;9.09;100.00;101543.38;4959791;28;20232;-81
2022/01/01 06:23:07;;;;;;;0.00;0.00;;;9.40;99.90;;;9.03;100.00;101530.88;4969264;28;20208;-81
2022/01/01 06:25:35;;;;;;;0.20;0.20;;;;;;;8.97;100.00;101547.41;4963632;28;20235;-81
2022/01/01 06:28:04;;;;;;;0.00;0.00;;;9.40;99.90;;;9.03;100.00;101556.38;4975365;28;20285;-81
2022/01/01 06:30:33;;;;;;;0.10;0.10;;;9.30;99.90;;;8.99;100.00;101551.00;4971617;28;20236;-80
2022/01/01 06:33:17;;;;;;;0.10;0.10;;;9.30;99.90;;;8.87;100.00;101540.03;4975741;28;20581;-81
2022/01/01 06:35:46;;;;;;;0.40;0.40;;;9.20;99.90;;;8.85;100.00;101544.38;4994695;28;20204;-81
2022/01/01 06:38:15;;;;;;;0.10;0.10;;;;;;;8.83;100.00;101542.53;4963025;28;20208;-80
2022/01/01 06:40:44;;;;;;;0.00;0.00;;;9.20;99.90;;;8.73;100.00;101538.69;4978845;28;20701;-81
2022/01/01 06:43:15;;;;;;;0.00;0.00;;;9.10;99.90;;;8.70;100.00;101562.31;4964762;28;20204;-81
2022/01/01 06:45:44;;;;;;;0.00;0.00;;;9.10;99.90;;;8.62;100.00;101555.88;4963726;28;20626;-81
2022/01/01 06:48:12;;;;;;;0.00;0.00;;;;;;;8.59;100.00;101577.75;4964255;28;20650;-81
2022/01/01 06:50:41;;;;;;;0.00;0.00;;;;;;;8.47;100.00;101572.06;4993916;28;20216;-81
2022/01/01 06:53:10;;;;;;;0.00;0.00;;;8.90;99.90;;;8.50;100.00;101587.09;4991080;28;20670;-81
2022/01/01 06:55:39;;;;;;;0.00;0.00;;;;;;;8.48;100.00;101586.13;4995903;28;20204;-81
2022/01/01 06:58:08;;;;;;;0.10;0.10;;;;;;;8.53;100.00;101597.72;4970624;28;20212;-80
2022/01/01 07:00:37;;;;;;;0.00;0.00;;;;;;;8.52;100.00;101586.28;4965107;28;20228;-81
2022/01/01 07:03:06;;;;;;;0.00;0.00;;;;;;;8.47;100.00;101584.34;4995414;28;20245;-80
2022/01/01 07:05:35;;;;;;;0.00;0.00;;;;;;;8.77;100.00;101616.16;4988406;28;20216;-82
2022/01/01 07:08:03;;;;;;;0.10;0.10;;;;;;;9.10;100.00;101619.06;4967646;28;20200;-82
2022/01/01 07:10:31;;;;;;;0.08;0.08;;;;;;;9.03;100.00;101596.84;4963147;28;20234;-81
2022/01/01 07:13:00;;;;;;;0.00;0.00;;;;;;;9.07;100.00;101614.59;4975881;28;20219;-79
2022/01/01 07:15:28;;;;;;;0.00;0.00;;;;;;;9.02;100.00;101594.16;4966224;28;20208;-82
2022/01/01 07:17:56;;;;;;;0.10;0.10;;;;;;;9.08;100.00;101605.81;4996567;28;20215;-83
2022/01/01 07:20:24;;;;;;;0.10;0.10;;;;;;;9.12;100.00;101605.13;4964370;28;20235;-80
2022/01/01 07:22:52;;;;;;;0.00;0.00;;;;;;;9.12;100.00;101599.84;4996377;28;20216;-81
2022/01/01 07:25:21;;;;;;;0.00;0.00;;;;;;;9.14;100.00;101586.69;4963997;28;20223;-81
2022/01/01 07:27:49;;;;;;;0.10;0.10;;;9.10;99.90;;;8.75;100.00;101559.81;4964233;28;20211;-81
2022/01/01 07:30:17;;;;;;;0.00;0.00;;;;;;;8.48;100.00;101558.03;4961617;28;20232;-82
2022/01/01 07:32:50;;;;;;;0.00;0.00;;;8.80;99.90;;;8.39;100.00;101568.25;4977905;28;20199;-82
2022/01/01 07:35:20;;;;;;;0.00;0.00;;;8.80;99.90;;;8.38;100.00;101584.00;4977953;28;20234;-82
2022/01/01 07:37:49;;;;;;;0.10;0.10;;;;;;;8.43;100.00;101607.06;4974777;28;20215;-82
2022/01/01 07:40:17;;;;;;;0.10;0.10;;;8.70;99.90;;;8.46;100.00;101614.19;4966950;28;20232;-81
2022/01/01 07:42:46;;;;;;;0.10;0.10;;;;;;;8.56;100.00;101635.66;4957788;28;20224;-81
2022/01/01 07:45:15;;;;;;;0.20;0.20;;;;;;;8.82;100.00;101656.78;4961792;28;20223;-80
2022/01/01 07:47:44;;;;;;;0.10;0.10;;;;;;;8.76;100.00;101654.84;4968903;28;20207;-81
2022/01/01 07:50:12;;;;;;;0.00;0.00;;;;;;;8.76;100.00;101668.03;4966752;28;20227;-82
2022/01/01 07:52:42;;;;;;;0.10;0.10;;;8.90;99.90;;;8.82;100.00;101669.97;4994245;28;20604;-82
2022/01/01 07:55:10;;;;;;;0.08;0.08;;;;;;;8.84;100.00;101673.56;4973175;28;20215;-83
2022/01/01 07:57:38;;;;;;;0.10;0.10;;;;;;;8.83;100.00;101683.22;4978560;28;20200;-82
2022/01/01 08:00:08;;;;;;;0.10;0.10;;;8.80;99.90;;;8.81;100.00;101679.63;4961792;28;20231;-82
2022/01/01 08:02:42;;;;;;;0.00;0.00;;;8.90;99.90;;;8.84;100.00;101689.41;4947143;28;20212;-82
2022/01/01 08:05:12;;;;;;;0.00;0.00;;;8.90;99.90;;;8.87;100.00;101703.59;4963472;28;20211;-81
2022/01/01 08:07:40;;;;;;;0.00;0.00;;;;;;;8.89;100.00;101701.00;4957664;28;20228;-81
2022/01/01 08:10:29;;;;;;;0.00;0.00;;;;;;;8.95;100.00;101695.97;4986783;28;20243;-81
2022/01/01 08:12:57;;;;;;;0.20;0.20;;;9.00;99.90;;;8.98;100.00;101701.34;4964463;28;20293;-83
2022/01/01 08:15:27;;;;;;;0.05;0.05;;;;;;;9.02;100.00;101712.91;4999887;28;20204;-81
2022/01/01 08:17:55;;;;;;;0.00;0.00;;;;;;;9.04;100.00;101705.94;4963701;28;20216;-82
2022/01/01 08:20:30;;;;;;;0.00;0.00;;;;;;;9.04;100.00;101706.84;4958625;28;20223;-81
2022/01/01 08:22:58;;;;;;;0.00;0.00;;;9.10;99.90;;;9.06;100.00;101706.88;4964866;28;20600;-79
2022/01/01 08:25:26;;;;;;;0.10;0.10;;;;;;;9.08;100.00;101706.09;4977470;28;20231;-82
2022/01/01 08:27:54;;;;;;;0.00;0.00;;;9.20;99.90;;;9.12;100.00;101710.69;4966786;28;20220;-79
2022/01/01 08:30:22;;;;;;;0.00;0.00;;;;;;;9.34;100.00;101720.25;5000497;23;20231;-80
2022/01/01 08:32:50;;;;;;;0.00;0.00;;;;;;;9.29;100.00;101701.59;5006622;28;20199;-83
2022/01/01 08:35:19;;;;;;;0.10;0.10;;;;;;;9.32;100.00;101702.56;5001777;28;20211;-82
2022/01/01 08:37:47;;;;;;;0.10;0.10;;;;;;;9.38;100.00;101710.69;4991079;28;20560;-81
2022/01/01 08:40:15;;;;;;;0.00;0.00;;;;;;;9.44;100.00;101711.78;5015393;28;20230;-82
2022/01/01 08:42:43;;;;;;;0.00;0.00;;;;;;;9.50;100.00;101712.00;5041172;28;20218;-81
2022/01/01 08:45:12;;;;;;;0.00;0.00;;;;;;;9.57;100.00;101713.09;5042526;28;20198;-82
2022/01/01 08:47:40;;;;;;;0.00;0.00;;;;;;;9.66;100.00;101723.97;5043563;28;20218;-81
2022/01/01 08:50:09;;;;;;;0.00;0.00;;;9.70;99.90;;;9.76;100.00;101725.16;5027372;28;20221;-81
2022/01/01 08:52:37;;;;;;;0.08;0.08;;;9.70;99.90;;;9.84;100.00;101727.22;5018280;28;20203;-80
2022/01/01 08:55:06;;;;;;;0.00;0.00;;;;;;;9.86;100.00;101719.31;5026950;28;20221;-80
2022/01/01 08:57:34;;;;;;;0.10;0.10;;;9.90;99.90;;;9.91;100.00;101710.69;5024096;28;20206;-80
2022/01/01 09:00:08;;;;;;;0.00;0.00;;;9.80;99.90;;;9.87;100.00;101706.16;5022761;28;20217;-80
2022/01/01 09:02:37;;;;;;;0.00;0.00;;;;;;;9.84;100.00;101695.50;5030845;28;20203;-80
2022/01/01 09:05:06;;;;;;;0.00;0.00;;;9.90;99.90;;;9.82;100.00;101691.91;5005542;28;20585;-79
2022/01/01 09:07:34;;;;;;;0.00;0.00;;;;;;;9.84;100.00;101691.97;5007278;28;20241;-80
2022/01/01 09:10:04;;;;;;;0.00;0.00;;;9.90;99.90;;;9.91;100.00;101704.53;5036701;28;20250;-80
2022/01/01 09:12:32;;;;;;;0.10;0.10;;;;;;;9.99;100.00;101708.31;5030378;28;20210;-80
2022/01/01 09:15:00;;;;;;;0.00;0.00;;;;;;;10.05;100.00;101710.25;5034797;28;20219;-81
2022/01/01 09:17:29;;;;;;;0.00;0.00;;;;;;;10.06;100.00;101717.31;5020332;28;20212;-80
2022/01/01 09:19:57;;;;;;;0.10;0.10;;;;;;;10.09;100.00;101715.66;5055340;28;20218;-80
2022/01/01 09:22:26;;;;;;;0.00;0.00;;;;;;;10.13;100.00;101717.56;5048760;28;20241;-80
2022/01/01 09:24:54;;;;;;;0.20;0.20;;;;;;;10.16;100.00;101709.72;5033494;28;20208;-79
2022/01/01 09:27:22;;;;;;;0.28;0.28;;;;;;;10.22;100.00;101716.97;5002055;28;20222;-80
2022/01/01 09:29:50;;;;;;;0.00;0.00;;;;;;;10.26;100.00;101710.94;5039567;28;20225;-80
2022/01/01 09:32:20;;;;;;;0.00;0.00;;;;;;;10.34;100.00;101701.50;5032237;28;20210;-79
2022/01/01 09:34:48;;;;;;;0.10;0.10;;;;;;;10.39;100.00;101702.53;5036814;28;20206;-79
2022/01/01 09:37:16;;;;;;;0.20;0.20;;;10.30;99.90;;;10.45;100.00;101689.53;5035909;28;20233;-80
2022/01/01 09:39:44;;;;;;;0.03;0.03;;;;;;;10.53;100.00;101700.31;5038474;28;20232;-80
2022/01/01 09:42:13;;;;;;;0.00;0.00;;;;;;;10.60;100.00;101690.81;5019490;28;20198;-80
2022/01/01 09:44:41;;;;;;;0.30;0.30;;;;;;;10.72;100.00;101699.09;5018384;28;20237;-79
2022/01/01 09:47:10;;;;;;;0.10;0.10;;;10.70;99.90;;;10.67;100.00;101698.97;5020978;28;20696;-79
2022/01/01 09:49:40;;;;;;;0.00;0.00;;;;;;;10.69;100.00;101701.66;5005923;28;20221;-79
2022/01/01 09:52:09;;;;;;;0.00;0.00;;;;;;;10.68;100.00;101690.19;5031902;28;20209;-80
2022/01/01 09:54:43;;;;;;;0.00;0.00;;;;;;;10.68;100.00;101690.19;5024597;28;20204;-79
2022/01/01 09:57:11;;;;;;;0.05;0.05;;;;;;;10.67;100.00;101685.75;5043210;28;20203;-80
2022/01/01 09:59:40;;;;;;;0.00;0.00;;;10.80;99.90;;;10.74;100.00;101684.16;5018708;28;20229;-81
2022/01/01 10:02:09;;;;;;;0.30;0.30;;;10.90;99.90;;;10.70;100.00;101677.91;5041152;28;20206;-79
2022/01/01 10:04:51;;;;;;;0.00;0.00;;;10.90;99.90;;;10.87;100.00;101700.44;5054572;28;20209;-79
2022/01/01 10:07:29;;;;;;;0.00;0.00;;;11.00;99.90;;;10.86;100.00;101681.88;5039426;28;20229;-81
2022/01/01 10:09:58;;;;;;;0.00;0.00;;;;;;;10.86;100.00;101679.22;5040377;28;20222;-80
2022/01/01 10:12:43;;;;;;;0.00;0.00;;;11.00;99.90;;;10.79;100.00;101664.03;5009799;28;20206;-81
2022/01/01 10:15:13;;;;;;;0.00;0.00;;;11.00;99.90;;;10.81;100.00;101657.03;5038572;28;20201;-80
2022/01/01 10:17:42;;;;;;;0.30;0.30;;;;;;;10.89;100.00;101669.59;5035815;28;20214;-80
2022/01/01 10:20:11;;;;;;;0.00;0.00;;;11.10;99.90;;;10.96;100.00;101672.44;5018572;28;20226;-81
2022/01/01 10:22:40;;;;;;;0.00;0.00;;;;;;;10.97;100.00;101659.22;5023045;28;20217;-79
2022/01/01 10:28:03;;;;;;;0.00;0.00;;;11.20;99.90;;;11.20;100.00;101649.25;5057665;28;20225;-79
2022/01/01 10:30:40;;;;;;;0.10;0.10;;;11.30;99.90;;;11.25;100.00;101644.97;5037169;28;20234;-80
2022/01/01 10:33:15;;;;;;;0.00;0.00;;;11.40;99.90;;;11.26;100.00;101630.88;5029380;28;20209;-79
2022/01/01 10:35:49;;;;;;;0.00;0.00;;;11.40;99.90;;;11.24;100.00;101624.63;5061546;28;20212;-80
2022/01/01 10:38:27;;;;;;;0.00;0.00;;;11.50;99.90;;;11.34;100.00;101631.94;5020057;28;20668;-80
2022/01/01 10:41:06;;;;;;;0.00;0.00;;;11.60;99.90;;;11.36;100.00;101626.69;5037970;28;20258;-79
2022/01/01 10:43:46;;;;;;;0.00;0.00;;;11.60;99.90;;;11.48;100.00;101637.59;5008201;28;20217;-82
2022/01/01 10:46:17;;;;;;;0.00;0.00;;;11.60;99.90;;;11.50;100.00;101626.16;5006175;28;20206;-80
2022/01/01 10:51:24;;;;;;;0.10;0.10;;;;;;;11.70;100.00;101610.78;5036758;28;20229;-81
2022/01/01 10:54:02;;;;;;;0.00;0.00;;;12.00;99.90;;;11.75;100.00;101608.22;5032450;28;20206;-80
2022/01/01 10:56:38;;;;;;;0.00;0.00;;;11.90;99.90;;;11.80;100.00;101607.50;5038456;28;20207;-82
2022/01/01 10:59:09;;;;;;;0.47;0.47;;;;;;;11.71;100.00;101588.72;5037081;28;20214;-82
2022/01/01 11:01:43;;;;;;;0.63;0.63;;;12.10;99.90;;;11.84;100.00;101593.47;5022920;28;20209;-81
2022/01/01 11:04:13;;;;;;;0.20;0.20;;;12.10;99.90;;;11.98;100.00;101583.16;5071076;28;20568;-81
2022/01/01 11:06:42;;;;;;;0.10;0.10;;;;;;;12.00;100.00;101584.09;5019448;28;20680;-81
2022/01/01 11:09:15;;;;;;;0.00;0.00;;;12.30;99.90;;;12.02;100.00;101579.72;5021781;28;20217;-81
2022/01/01 11:11:43;;;;;;;0.00;0.00;;;12.30;99.90;;;12.12;100.00;101571.09;5038634;28;20206;-81
2022/01/01 11:14:12;;;;;;;0.08;0.08;;;;;;;12.09;100.00;101554.22;5053027;28;20203;-81
2022/01/01 11:16:42;;;;;;;0.00;0.00;;;12.40;99.90;;;12.12;100.00;101551.63;5021604;28;20205;-81
2022/01/01 11:19:11;;;;;;;0.00;0.00;;;12.40;99.90;;;12.31;100.00;101556.44;5036572;28;20232;-81